This demonstration page uses our WeatherBlox Daily Observations layout. Learn more.

Left ArrowRight Arrow

41.86663, -103.66717

Hourly Observations for July 4, 2018

Temp ( °F °C ) Dew Point ( °F °C ) Humidity (%) Winds ( mph kmh ) Pressure ( in mb ) Visibility ( mi km ) Precip ( " mm )
12:53 am 00:53 Clear 65 18.3 56 13.3 73 73 E 7 11 29.86 1011 10 16.0934 N/A
1:53 am 01:53 Clear 66 18.9 56 13.3 70 70 E 5 7 29.86 1011 10 16.0934 N/A
2:53 am 02:53 Mostly Clear 65 18.3 56 13.3 73 73 SSE 6 9 29.86 1011 10 16.0934 N/A
3:53 am 03:53 Clear 64 17.8 57 13.9 78 78 E 6 9 29.88 1012 10 16.0934 N/A
4:53 am 04:53 Clear 64 17.8 58 14.4 81 81 NE 3 6 29.91 1013 10 16.0934 N/A
5:53 am 05:53 Sunny 65 18.3 59 15 81 81 N N/A 29.96 1015 10 16.0934 N/A
6:53 am 06:53 Sunny 66 18.9 61 16.1 84 84 N 8 13 29.99 1016 10 16.0934 N/A
7:53 am 07:53 Partly Cloudy 69 20.6 63 17.2 81 81 N 12 19 30 1016 10 16.0934 N/A
8:53 am 08:53 Sunny 73 22.8 64 17.8 74 74 WSW 7 11 30.03 1017 10 16.0934 N/A
9:53 am 09:53 Sunny 75 23.9 62 16.7 64 64 NE 13 20 30.03 1017 10 16.0934 N/A
10:53 am 10:53 Sunny 77 25 63 17.2 62 62 NNE 17 28 30.05 1018 10 16.0934 N/A
11:53 am 11:53 Sunny 79 26.1 63 17.2 58 58 NNE 15 24 30.06 1018 10 16.0934 N/A
12:53 pm 12:53 Sunny 80 26.7 62 16.7 54 54 NE 10 17 30.09 1019 10 16.0934 N/A
1:53 pm 13:53 Sunny 81 27.2 62 16.7 53 53 NE 8 13 30.08 1019 10 16.0934 N/A
2:53 pm 14:53 Sunny 82 27.8 63 17.2 53 53 ENE 12 19 30.09 1019 10 16.0934 N/A
3:53 pm 15:53 Sunny 83 28.3 64 17.8 53 53 NE 15 24 30.1 1019 10 16.0934 N/A
4:53 pm 16:53 Sunny 83 28.3 63 17.2 51 51 E 12 19 30.12 1020 10 16.0934 N/A
5:53 pm 17:53 Sunny 83 28.3 64 17.8 53 53 ENE 10 17 30.1 1019 10 16.0934 N/A
6:53 pm 18:53 Sunny 81 27.2 65 18.3 58 58 ENE 10 17 30.1 1019 10 16.0934 N/A
7:53 pm 19:53 Sunny 78 25.6 65 18.3 64 64 ENE 9 15 30.14 1021 10 16.0934 N/A
8:53 pm 20:53 Mostly Clear 74 23.3 64 17.8 71 71 ENE 12 19 30.16 1021 10 16.0934 N/A
9:53 pm 21:53 Clear 72 22.2 64 17.8 76 76 ESE 9 15 30.21 1023 10 16.0934 N/A
10:53 pm 22:53 Clear 71 21.7 63 17.2 76 76 E 10 17 30.2 1023 10 16.0934 N/A
11:53 pm 23:53 Clear 70 21.1 63 17.2 79 79 ENE 14 22 30.18 1022 10 16.0934 N/A

Powered by AerisWeather